sensor_id;sensor_type;location;lat;lon;timestamp;P1;durP1;ratioP1;P2;durP2;ratioP2
75059;SDS011;63640;59.264;18.116;2022-10-31T00:01:24;26.33;;;8.48;;
75059;SDS011;63640;59.264;18.116;2022-10-31T00:04:07;30.95;;;8.73;;
75059;SDS011;63640;59.264;18.116;2022-10-31T00:06:33;19.92;;;7.50;;
75059;SDS011;63640;59.264;18.116;2022-10-31T00:08:59;23.73;;;8.02;;
75059;SDS011;63640;59.264;18.116;2022-10-31T00:11:26;24.60;;;9.52;;
75059;SDS011;63640;59.264;18.116;2022-10-31T00:13:51;29.52;;;8.18;;
75059;SDS011;63640;59.264;18.116;2022-10-31T00:16:18;29.02;;;9.30;;
75059;SDS011;63640;59.264;18.116;2022-10-31T00:18:48;44.17;;;12.48;;
75059;SDS011;63640;59.264;18.116;2022-10-31T00:21:16;39.22;;;12.68;;
75059;SDS011;63640;59.264;18.116;2022-10-31T00:23:42;56.63;;;15.00;;
75059;SDS011;63640;59.264;18.116;2022-10-31T00:26:08;66.65;;;18.40;;
75059;SDS011;63640;59.264;18.116;2022-10-31T00:28:33;71.57;;;17.95;;
75059;SDS011;63640;59.264;18.116;2022-10-31T00:31:03;66.50;;;16.17;;
75059;SDS011;63640;59.264;18.116;2022-10-31T00:33:29;64.70;;;16.23;;
75059;SDS011;63640;59.264;18.116;2022-10-31T00:35:55;57.92;;;16.85;;
75059;SDS011;63640;59.264;18.116;2022-10-31T00:38:21;47.80;;;12.75;;
75059;SDS011;63640;59.264;18.116;2022-10-31T00:40:46;52.72;;;14.30;;
75059;SDS011;63640;59.264;18.116;2022-10-31T00:43:12;49.10;;;12.43;;
75059;SDS011;63640;59.264;18.116;2022-10-31T00:45:37;46.17;;;12.05;;
75059;SDS011;63640;59.264;18.116;2022-10-31T00:48:03;43.65;;;12.38;;
75059;SDS011;63640;59.264;18.116;2022-10-31T00:50:28;35.83;;;11.65;;
75059;SDS011;63640;59.264;18.116;2022-10-31T00:52:54;48.42;;;13.70;;
75059;SDS011;63640;59.264;18.116;2022-10-31T00:55:19;48.47;;;13.63;;
75059;SDS011;63640;59.264;18.116;2022-10-31T00:57:48;42.55;;;10.88;;
75059;SDS011;63640;59.264;18.116;2022-10-31T01:00:13;38.88;;;11.77;;
75059;SDS011;63640;59.264;18.116;2022-10-31T01:02:39;36.75;;;9.30;;
75059;SDS011;63640;59.264;18.116;2022-10-31T01:05:05;35.00;;;10.52;;
75059;SDS011;63640;59.264;18.116;2022-10-31T01:07:30;31.52;;;9.13;;
75059;SDS011;63640;59.264;18.116;2022-10-31T01:09:56;29.60;;;9.90;;
75059;SDS011;63640;59.264;18.116;2022-10-31T01:12:21;37.65;;;10.07;;
75059;SDS011;63640;59.264;18.116;2022-10-31T01:14:47;35.50;;;10.77;;
75059;SDS011;63640;59.264;18.116;2022-10-31T01:17:13;36.58;;;11.45;;
75059;SDS011;63640;59.264;18.116;2022-10-31T01:19:39;44.00;;;11.45;;
75059;SDS011;63640;59.264;18.116;2022-10-31T01:22:04;36.33;;;11.57;;
75059;SDS011;63640;59.264;18.116;2022-10-31T01:24:30;49.35;;;13.38;;
75059;SDS011;63640;59.264;18.116;2022-10-31T01:26:55;42.38;;;14.15;;
75059;SDS011;63640;59.264;18.116;2022-10-31T01:29:21;45.22;;;13.18;;
75059;SDS011;63640;59.264;18.116;2022-10-31T01:31:46;34.92;;;12.57;;
75059;SDS011;63640;59.264;18.116;2022-10-31T01:34:12;37.25;;;10.95;;
75059;SDS011;63640;59.264;18.116;2022-10-31T01:36:39;39.53;;;14.05;;
75059;SDS011;63640;59.264;18.116;2022-10-31T01:39:06;34.97;;;11.95;;
75059;SDS011;63640;59.264;18.116;2022-10-31T01:41:37;25.65;;;9.52;;
75059;SDS011;63640;59.264;18.116;2022-10-31T01:49:37;25.13;;;8.70;;
75059;SDS011;63640;59.264;18.116;2022-10-31T01:52:07;19.70;;;7.35;;
75059;SDS011;63640;59.264;18.116;2022-10-31T01:55:03;17.08;;;6.00;;
75059;SDS011;63640;59.264;18.116;2022-10-31T01:57:33;24.98;;;6.70;;
75059;SDS011;63640;59.264;18.116;2022-10-31T02:00:02;20.42;;;7.57;;
75059;SDS011;63640;59.264;18.116;2022-10-31T02:02:30;23.13;;;6.75;;
75059;SDS011;63640;59.264;18.116;2022-10-31T02:04:56;23.98;;;7.60;;
75059;SDS011;63640;59.264;18.116;2022-10-31T02:07:36;27.23;;;7.93;;
75059;SDS011;63640;59.264;18.116;2022-10-31T02:10:04;25.13;;;8.23;;
75059;SDS011;63640;59.264;18.116;2022-10-31T02:12:30;23.98;;;8.13;;
75059;SDS011;63640;59.264;18.116;2022-10-31T02:14:57;25.73;;;7.05;;
75059;SDS011;63640;59.264;18.116;2022-10-31T02:17:22;20.35;;;6.55;;
75059;SDS011;63640;59.264;18.116;2022-10-31T02:19:52;18.08;;;6.70;;
75059;SDS011;63640;59.264;18.116;2022-10-31T02:30:03;13.93;;;5.25;;
75059;SDS011;63640;59.264;18.116;2022-10-31T02:40:25;12.30;;;5.10;;
75059;SDS011;63640;59.264;18.116;2022-10-31T02:45:58;11.68;;;5.97;;
75059;SDS011;63640;59.264;18.116;2022-10-31T02:48:28;14.27;;;5.47;;
75059;SDS011;63640;59.264;18.116;2022-10-31T02:50:57;14.77;;;5.68;;
75059;SDS011;63640;59.264;18.116;2022-10-31T02:53:25;11.38;;;5.00;;
75059;SDS011;63640;59.264;18.116;2022-10-31T02:58:52;9.10;;;4.63;;
75059;SDS011;63640;59.264;18.116;2022-10-31T03:01:44;11.23;;;5.47;;
75059;SDS011;63640;59.264;18.116;2022-10-31T03:06:59;11.70;;;5.15;;
75059;SDS011;63640;59.264;18.116;2022-10-31T03:09:42;14.05;;;4.75;;
75059;SDS011;63640;59.264;18.116;2022-10-31T03:15:05;8.93;;;4.10;;
75059;SDS011;63640;59.264;18.116;2022-10-31T03:17:42;9.30;;;3.35;;
75059;SDS011;63640;59.264;18.116;2022-10-31T03:20:15;9.65;;;3.78;;
75059;SDS011;63640;59.264;18.116;2022-10-31T03:22:42;8.70;;;4.13;;
75059;SDS011;63640;59.264;18.116;2022-10-31T03:25:09;13.75;;;3.92;;
75059;SDS011;63640;59.264;18.116;2022-10-31T03:27:35;10.40;;;4.22;;
75059;SDS011;63640;59.264;18.116;2022-10-31T03:30:02;10.55;;;4.80;;
75059;SDS011;63640;59.264;18.116;2022-10-31T03:32:34;10.85;;;4.22;;
75059;SDS011;63640;59.264;18.116;2022-10-31T03:35:06;13.25;;;4.78;;
75059;SDS011;63640;59.264;18.116;2022-10-31T03:37:34;12.05;;;4.35;;
75059;SDS011;63640;59.264;18.116;2022-10-31T03:40:00;12.35;;;4.55;;
75059;SDS011;63640;59.264;18.116;2022-10-31T03:42:28;12.15;;;5.20;;
75059;SDS011;63640;59.264;18.116;2022-10-31T03:45:02;9.00;;;4.00;;
75059;SDS011;63640;59.264;18.116;2022-10-31T03:47:30;10.52;;;3.80;;
75059;SDS011;63640;59.264;18.116;2022-10-31T03:49:56;10.77;;;4.05;;
75059;SDS011;63640;59.264;18.116;2022-10-31T03:52:29;9.35;;;3.45;;
75059;SDS011;63640;59.264;18.116;2022-10-31T03:54:58;10.13;;;4.20;;
75059;SDS011;63640;59.264;18.116;2022-10-31T03:57:45;9.52;;;4.30;;
75059;SDS011;63640;59.264;18.116;2022-10-31T04:00:14;17.23;;;5.18;;
75059;SDS011;63640;59.264;18.116;2022-10-31T04:02:51;12.10;;;4.50;;
75059;SDS011;63640;59.264;18.116;2022-10-31T04:05:20;13.23;;;5.28;;
75059;SDS011;63640;59.264;18.116;2022-10-31T04:07:47;9.88;;;4.50;;
75059;SDS011;63640;59.264;18.116;2022-10-31T04:10:16;9.27;;;4.18;;
75059;SDS011;63640;59.264;18.116;2022-10-31T04:12:43;8.63;;;3.80;;
75059;SDS011;63640;59.264;18.116;2022-10-31T04:15:13;10.35;;;3.70;;
75059;SDS011;63640;59.264;18.116;2022-10-31T04:17:39;9.45;;;3.95;;
75059;SDS011;63640;59.264;18.116;2022-10-31T04:20:06;13.80;;;4.68;;
75059;SDS011;63640;59.264;18.116;2022-10-31T04:22:32;10.75;;;4.22;;
75059;SDS011;63640;59.264;18.116;2022-10-31T04:24:57;7.90;;;3.75;;
75059;SDS011;63640;59.264;18.116;2022-10-31T04:27:23;13.40;;;3.88;;
75059;SDS011;63640;59.264;18.116;2022-10-31T04:29:48;10.30;;;3.78;;
75059;SDS011;63640;59.264;18.116;2022-10-31T04:32:13;14.38;;;3.83;;
75059;SDS011;63640;59.264;18.116;2022-10-31T04:34:39;9.13;;;4.07;;
75059;SDS011;63640;59.264;18.116;2022-10-31T04:37:04;10.10;;;4.28;;
75059;SDS011;63640;59.264;18.116;2022-10-31T04:39:30;9.40;;;3.47;;
75059;SDS011;63640;59.264;18.116;2022-10-31T04:41:55;8.75;;;3.08;;
75059;SDS011;63640;59.264;18.116;2022-10-31T04:44:21;17.50;;;4.60;;
75059;SDS011;63640;59.264;18.116;2022-10-31T04:46:46;19.63;;;4.78;;
75059;SDS011;63640;59.264;18.116;2022-10-31T04:49:12;26.17;;;5.80;;
75059;SDS011;63640;59.264;18.116;2022-10-31T04:51:37;19.08;;;6.53;;
75059;SDS011;63640;59.264;18.116;2022-10-31T04:54:02;16.35;;;4.30;;
75059;SDS011;63640;59.264;18.116;2022-10-31T04:56:28;26.77;;;5.68;;
75059;SDS011;63640;59.264;18.116;2022-10-31T04:58:53;28.45;;;5.40;;
75059;SDS011;63640;59.264;18.116;2022-10-31T05:01:19;22.73;;;5.32;;
75059;SDS011;63640;59.264;18.116;2022-10-31T05:03:44;44.05;;;6.88;;
75059;SDS011;63640;59.264;18.116;2022-10-31T05:06:10;42.63;;;6.30;;
75059;SDS011;63640;59.264;18.116;2022-10-31T05:08:35;41.03;;;7.80;;
75059;SDS011;63640;59.264;18.116;2022-10-31T05:11:01;50.03;;;7.65;;
75059;SDS011;63640;59.264;18.116;2022-10-31T05:13:27;109.40;;;14.98;;
75059;SDS011;63640;59.264;18.116;2022-10-31T05:15:53;50.03;;;9.43;;
75059;SDS011;63640;59.264;18.116;2022-10-31T05:18:18;59.45;;;11.60;;
75059;SDS011;63640;59.264;18.116;2022-10-31T05:20:44;98.03;;;13.05;;
75059;SDS011;63640;59.264;18.116;2022-10-31T05:23:09;67.35;;;11.27;;
75059;SDS011;63640;59.264;18.116;2022-10-31T05:25:35;99.15;;;13.15;;
75059;SDS011;63640;59.264;18.116;2022-10-31T05:28:00;116.43;;;11.88;;
75059;SDS011;63640;59.264;18.116;2022-10-31T05:30:29;106.30;;;11.75;;
75059;SDS011;63640;59.264;18.116;2022-10-31T05:32:55;59.10;;;9.77;;
75059;SDS011;63640;59.264;18.116;2022-10-31T05:35:23;67.30;;;9.07;;
75059;SDS011;63640;59.264;18.116;2022-10-31T05:37:50;84.95;;;9.40;;
75059;SDS011;63640;59.264;18.116;2022-10-31T05:40:16;125.97;;;10.95;;
75059;SDS011;63640;59.264;18.116;2022-10-31T05:42:43;67.90;;;9.63;;
75059;SDS011;63640;59.264;18.116;2022-10-31T05:45:13;59.42;;;6.78;;
75059;SDS011;63640;59.264;18.116;2022-10-31T05:47:40;42.67;;;7.93;;
75059;SDS011;63640;59.264;18.116;2022-10-31T05:50:06;110.80;;;10.50;;
75059;SDS011;63640;59.264;18.116;2022-10-31T05:52:32;44.00;;;6.20;;
75059;SDS011;63640;59.264;18.116;2022-10-31T05:54:57;45.40;;;8.30;;
75059;SDS011;63640;59.264;18.116;2022-10-31T05:57:23;72.10;;;8.40;;
75059;SDS011;63640;59.264;18.116;2022-10-31T05:59:49;30.70;;;5.85;;
75059;SDS011;63640;59.264;18.116;2022-10-31T06:02:18;143.13;;;10.10;;
75059;SDS011;63640;59.264;18.116;2022-10-31T06:04:44;101.75;;;12.30;;
75059;SDS011;63640;59.264;18.116;2022-10-31T06:07:09;125.47;;;10.77;;
75059;SDS011;63640;59.264;18.116;2022-10-31T06:09:34;86.85;;;10.98;;
75059;SDS011;63640;59.264;18.116;2022-10-31T06:12:00;99.68;;;10.55;;
75059;SDS011;63640;59.264;18.116;2022-10-31T06:14:26;49.38;;;7.65;;
75059;SDS011;63640;59.264;18.116;2022-10-31T06:16:51;117.22;;;8.63;;
75059;SDS011;63640;59.264;18.116;2022-10-31T06:19:17;44.25;;;7.43;;
75059;SDS011;63640;59.264;18.116;2022-10-31T06:21:42;94.38;;;10.50;;
75059;SDS011;63640;59.264;18.116;2022-10-31T06:24:07;70.47;;;8.70;;
75059;SDS011;63640;59.264;18.116;2022-10-31T06:26:33;73.47;;;9.18;;
75059;SDS011;63640;59.264;18.116;2022-10-31T06:28:58;76.57;;;10.75;;
75059;SDS011;63640;59.264;18.116;2022-10-31T06:31:24;71.60;;;9.93;;
75059;SDS011;63640;59.264;18.116;2022-10-31T06:33:49;118.28;;;13.32;;
75059;SDS011;63640;59.264;18.116;2022-10-31T06:36:15;50.08;;;8.00;;
75059;SDS011;63640;59.264;18.116;2022-10-31T06:38:40;84.55;;;10.98;;
75059;SDS011;63640;59.264;18.116;2022-10-31T06:41:06;39.97;;;8.05;;
75059;SDS011;63640;59.264;18.116;2022-10-31T06:43:32;59.58;;;11.52;;
75059;SDS011;63640;59.264;18.116;2022-10-31T06:46:01;92.07;;;12.20;;
75059;SDS011;63640;59.264;18.116;2022-10-31T06:48:27;53.38;;;8.30;;
75059;SDS011;63640;59.264;18.116;2022-10-31T06:50:52;80.65;;;10.90;;
75059;SDS011;63640;59.264;18.116;2022-10-31T06:53:18;42.85;;;9.73;;
75059;SDS011;63640;59.264;18.116;2022-10-31T06:55:43;42.20;;;10.05;;
75059;SDS011;63640;59.264;18.116;2022-10-31T06:58:09;51.13;;;10.13;;
75059;SDS011;63640;59.264;18.116;2022-10-31T07:00:36;42.97;;;9.88;;
75059;SDS011;63640;59.264;18.116;2022-10-31T07:03:03;74.95;;;12.15;;
75059;SDS011;63640;59.264;18.116;2022-10-31T07:05:34;28.35;;;8.50;;
75059;SDS011;63640;59.264;18.116;2022-10-31T07:08:00;40.58;;;8.52;;
75059;SDS011;63640;59.264;18.116;2022-10-31T07:10:28;30.48;;;8.55;;
75059;SDS011;63640;59.264;18.116;2022-10-31T07:12:56;46.80;;;10.73;;
75059;SDS011;63640;59.264;18.116;2022-10-31T07:15:22;35.42;;;10.18;;
75059;SDS011;63640;59.264;18.116;2022-10-31T07:17:51;29.67;;;8.07;;
75059;SDS011;63640;59.264;18.116;2022-10-31T07:20:17;38.78;;;10.77;;
75059;SDS011;63640;59.264;18.116;2022-10-31T07:22:42;49.67;;;10.02;;
75059;SDS011;63640;59.264;18.116;2022-10-31T07:25:08;54.80;;;11.38;;
75059;SDS011;63640;59.264;18.116;2022-10-31T07:27:37;30.63;;;9.13;;
75059;SDS011;63640;59.264;18.116;2022-10-31T07:30:03;37.03;;;9.65;;
75059;SDS011;63640;59.264;18.116;2022-10-31T07:35:09;69.93;;;14.52;;
75059;SDS011;63640;59.264;18.116;2022-10-31T07:37:35;38.22;;;9.13;;
75059;SDS011;63640;59.264;18.116;2022-10-31T07:40:01;54.60;;;12.20;;
75059;SDS011;63640;59.264;18.116;2022-10-31T07:42:28;57.55;;;11.52;;
75059;SDS011;63640;59.264;18.116;2022-10-31T07:44:53;59.50;;;12.35;;
75059;SDS011;63640;59.264;18.116;2022-10-31T07:47:18;81.72;;;13.73;;
75059;SDS011;63640;59.264;18.116;2022-10-31T07:49:44;71.20;;;12.70;;
75059;SDS011;63640;59.264;18.116;2022-10-31T07:52:09;59.00;;;12.73;;
75059;SDS011;63640;59.264;18.116;2022-10-31T07:54:35;54.33;;;10.88;;
75059;SDS011;63640;59.264;18.116;2022-10-31T07:57:00;66.68;;;13.15;;
75059;SDS011;63640;59.264;18.116;2022-10-31T07:59:26;44.42;;;10.88;;
75059;SDS011;63640;59.264;18.116;2022-10-31T08:01:52;47.78;;;10.75;;
75059;SDS011;63640;59.264;18.116;2022-10-31T08:04:17;44.92;;;11.25;;
75059;SDS011;63640;59.264;18.116;2022-10-31T08:06:43;52.22;;;11.52;;
75059;SDS011;63640;59.264;18.116;2022-10-31T08:09:08;48.60;;;11.88;;
75059;SDS011;63640;59.264;18.116;2022-10-31T08:11:34;47.47;;;11.52;;
75059;SDS011;63640;59.264;18.116;2022-10-31T08:13:59;43.20;;;10.77;;
75059;SDS011;63640;59.264;18.116;2022-10-31T08:16:25;44.33;;;10.38;;
75059;SDS011;63640;59.264;18.116;2022-10-31T08:18:51;51.33;;;12.05;;
75059;SDS011;63640;59.264;18.116;2022-10-31T08:21:18;53.72;;;11.30;;
75059;SDS011;63640;59.264;18.116;2022-10-31T08:23:43;52.08;;;11.82;;
75059;SDS011;63640;59.264;18.116;2022-10-31T08:26:09;45.10;;;10.55;;
75059;SDS011;63640;59.264;18.116;2022-10-31T08:28:34;57.13;;;13.68;;
75059;SDS011;63640;59.264;18.116;2022-10-31T08:31:00;60.33;;;12.18;;
75059;SDS011;63640;59.264;18.116;2022-10-31T08:33:25;67.40;;;13.43;;
75059;SDS011;63640;59.264;18.116;2022-10-31T08:35:51;62.60;;;12.32;;
75059;SDS011;63640;59.264;18.116;2022-10-31T08:38:16;55.83;;;12.30;;
75059;SDS011;63640;59.264;18.116;2022-10-31T08:40:42;68.95;;;15.02;;
75059;SDS011;63640;59.264;18.116;2022-10-31T08:45:36;82.68;;;13.85;;
75059;SDS011;63640;59.264;18.116;2022-10-31T08:48:02;70.20;;;14.70;;
75059;SDS011;63640;59.264;18.116;2022-10-31T08:50:30;70.07;;;14.32;;
75059;SDS011;63640;59.264;18.116;2022-10-31T08:53:16;63.60;;;14.88;;
75059;SDS011;63640;59.264;18.116;2022-10-31T08:55:43;51.88;;;11.75;;
75059;SDS011;63640;59.264;18.116;2022-10-31T08:58:10;60.63;;;13.48;;
75059;SDS011;63640;59.264;18.116;2022-10-31T09:00:37;60.50;;;13.75;;
75059;SDS011;63640;59.264;18.116;2022-10-31T09:03:06;62.78;;;13.05;;
75059;SDS011;63640;59.264;18.116;2022-10-31T09:05:36;57.80;;;12.45;;
75059;SDS011;63640;59.264;18.116;2022-10-31T09:08:03;52.45;;;13.13;;
75059;SDS011;63640;59.264;18.116;2022-10-31T09:10:29;40.95;;;11.57;;
75059;SDS011;63640;59.264;18.116;2022-10-31T09:12:58;47.25;;;11.23;;
75059;SDS011;63640;59.264;18.116;2022-10-31T09:15:32;44.05;;;11.57;;
75059;SDS011;63640;59.264;18.116;2022-10-31T09:17:59;43.25;;;11.32;;
75059;SDS011;63640;59.264;18.116;2022-10-31T09:20:25;36.95;;;11.38;;
75059;SDS011;63640;59.264;18.116;2022-10-31T09:22:58;40.80;;;11.50;;
75059;SDS011;63640;59.264;18.116;2022-10-31T09:25:25;44.13;;;12.30;;
75059;SDS011;63640;59.264;18.116;2022-10-31T09:27:54;43.35;;;12.68;;
75059;SDS011;63640;59.264;18.116;2022-10-31T09:30:21;38.08;;;12.25;;
75059;SDS011;63640;59.264;18.116;2022-10-31T09:32:46;44.35;;;12.63;;
75059;SDS011;63640;59.264;18.116;2022-10-31T09:35:12;40.42;;;13.93;;
75059;SDS011;63640;59.264;18.116;2022-10-31T09:37:37;29.58;;;10.63;;
75059;SDS011;63640;59.264;18.116;2022-10-31T09:40:03;41.85;;;11.73;;
75059;SDS011;63640;59.264;18.116;2022-10-31T09:45:10;38.67;;;12.68;;
75059;SDS011;63640;59.264;18.116;2022-10-31T09:47:55;27.33;;;11.23;;
75059;SDS011;63640;59.264;18.116;2022-10-31T09:50:51;41.55;;;14.65;;
75059;SDS011;63640;59.264;18.116;2022-10-31T09:56:05;44.20;;;12.77;;
75059;SDS011;63640;59.264;18.116;2022-10-31T09:58:33;32.10;;;12.45;;
75059;SDS011;63640;59.264;18.116;2022-10-31T10:01:01;25.08;;;11.32;;
75059;SDS011;63640;59.264;18.116;2022-10-31T10:03:44;32.08;;;12.77;;
75059;SDS011;63640;59.264;18.116;2022-10-31T10:08:44;26.58;;;10.35;;
75059;SDS011;63640;59.264;18.116;2022-10-31T10:22:19;35.15;;;12.90;;
75059;SDS011;63640;59.264;18.116;2022-10-31T10:32:55;27.77;;;11.45;;
75059;SDS011;63640;59.264;18.116;2022-10-31T10:37:56;27.80;;;10.65;;
75059;SDS011;63640;59.264;18.116;2022-10-31T10:40:24;28.42;;;10.88;;
75059;SDS011;63640;59.264;18.116;2022-10-31T10:45:44;25.13;;;10.52;;
75059;SDS011;63640;59.264;18.116;2022-10-31T10:48:47;30.10;;;11.02;;
75059;SDS011;63640;59.264;18.116;2022-10-31T10:51:19;25.23;;;11.55;;
75059;SDS011;63640;59.264;18.116;2022-10-31T10:54:01;27.52;;;11.93;;
75059;SDS011;63640;59.264;18.116;2022-10-31T10:59:18;24.42;;;10.30;;
75059;SDS011;63640;59.264;18.116;2022-10-31T11:01:45;27.33;;;11.30;;
75059;SDS011;63640;59.264;18.116;2022-10-31T11:07:00;28.35;;;12.15;;
75059;SDS011;63640;59.264;18.116;2022-10-31T11:09:29;24.77;;;11.50;;
75059;SDS011;63640;59.264;18.116;2022-10-31T11:11:55;29.50;;;11.88;;
75059;SDS011;63640;59.264;18.116;2022-10-31T11:14:21;26.25;;;11.60;;
75059;SDS011;63640;59.264;18.116;2022-10-31T11:16:49;28.33;;;12.20;;
75059;SDS011;63640;59.264;18.116;2022-10-31T11:19:19;23.00;;;10.93;;
75059;SDS011;63640;59.264;18.116;2022-10-31T11:21:49;27.98;;;12.60;;
75059;SDS011;63640;59.264;18.116;2022-10-31T11:24:18;22.20;;;10.48;;
75059;SDS011;63640;59.264;18.116;2022-10-31T11:26:45;21.42;;;10.10;;
75059;SDS011;63640;59.264;18.116;2022-10-31T11:29:21;23.05;;;11.02;;
75059;SDS011;63640;59.264;18.116;2022-10-31T11:31:50;24.50;;;11.20;;
75059;SDS011;63640;59.264;18.116;2022-10-31T11:34:42;21.52;;;10.15;;
75059;SDS011;63640;59.264;18.116;2022-10-31T11:37:11;26.38;;;10.27;;
75059;SDS011;63640;59.264;18.116;2022-10-31T11:39:43;27.00;;;11.73;;
75059;SDS011;63640;59.264;18.116;2022-10-31T11:42:09;25.08;;;11.48;;
75059;SDS011;63640;59.264;18.116;2022-10-31T11:44:35;26.00;;;12.13;;
75059;SDS011;63640;59.264;18.116;2022-10-31T11:47:02;26.65;;;12.52;;
75059;SDS011;63640;59.264;18.116;2022-10-31T11:49:29;22.98;;;12.05;;
75059;SDS011;63640;59.264;18.116;2022-10-31T11:51:58;21.30;;;10.00;;
75059;SDS011;63640;59.264;18.116;2022-10-31T11:54:30;22.10;;;11.35;;
75059;SDS011;63640;59.264;18.116;2022-10-31T11:59:54;21.55;;;10.30;;
75059;SDS011;63640;59.264;18.116;2022-10-31T12:02:21;19.20;;;9.18;;
75059;SDS011;63640;59.264;18.116;2022-10-31T12:04:49;19.10;;;9.85;;
75059;SDS011;63640;59.264;18.116;2022-10-31T12:07:19;16.48;;;8.05;;
75059;SDS011;63640;59.264;18.116;2022-10-31T12:09:44;19.40;;;8.95;;
75059;SDS011;63640;59.264;18.116;2022-10-31T12:14:42;16.70;;;8.43;;
75059;SDS011;63640;59.264;18.116;2022-10-31T12:17:20;15.65;;;6.50;;
75059;SDS011;63640;59.264;18.116;2022-10-31T12:33:45;20.67;;;8.55;;
75059;SDS011;63640;59.264;18.116;2022-10-31T12:38:55;19.55;;;9.10;;
75059;SDS011;63640;59.264;18.116;2022-10-31T12:46:50;17.02;;;7.75;;
75059;SDS011;63640;59.264;18.116;2022-10-31T12:54:52;16.23;;;6.72;;
75059;SDS011;63640;59.264;18.116;2022-10-31T13:00:22;13.10;;;5.28;;
75059;SDS011;63640;59.264;18.116;2022-10-31T13:11:07;16.88;;;6.82;;
75059;SDS011;63640;59.264;18.116;2022-10-31T13:13:47;14.68;;;5.90;;
75059;SDS011;63640;59.264;18.116;2022-10-31T13:16:21;13.65;;;5.63;;
75059;SDS011;63640;59.264;18.116;2022-10-31T13:18:52;13.48;;;5.60;;
75059;SDS011;63640;59.264;18.116;2022-10-31T13:21:28;16.55;;;6.32;;
75059;SDS011;63640;59.264;18.116;2022-10-31T13:23:56;15.05;;;6.88;;
75059;SDS011;63640;59.264;18.116;2022-10-31T13:26:33;14.93;;;6.30;;
75059;SDS011;63640;59.264;18.116;2022-10-31T13:31:58;14.98;;;6.75;;
75059;SDS011;63640;59.264;18.116;2022-10-31T13:34:44;14.98;;;6.55;;
75059;SDS011;63640;59.264;18.116;2022-10-31T13:43:07;13.27;;;5.93;;
75059;SDS011;63640;59.264;18.116;2022-10-31T13:45:48;14.93;;;6.35;;
75059;SDS011;63640;59.264;18.116;2022-10-31T13:50:40;15.77;;;7.30;;
75059;SDS011;63640;59.264;18.116;2022-10-31T13:53:19;19.25;;;6.70;;
75059;SDS011;63640;59.264;18.116;2022-10-31T13:55:47;14.68;;;6.15;;
75059;SDS011;63640;59.264;18.116;2022-10-31T13:58:36;15.30;;;7.43;;
75059;SDS011;63640;59.264;18.116;2022-10-31T14:01:11;14.95;;;6.32;;
75059;SDS011;63640;59.264;18.116;2022-10-31T14:03:41;16.10;;;6.55;;
75059;SDS011;63640;59.264;18.116;2022-10-31T14:06:08;16.15;;;6.90;;
75059;SDS011;63640;59.264;18.116;2022-10-31T14:08:49;14.77;;;5.63;;
75059;SDS011;63640;59.264;18.116;2022-10-31T14:11:26;16.92;;;5.97;;
75059;SDS011;63640;59.264;18.116;2022-10-31T14:13:52;14.68;;;6.00;;
75059;SDS011;63640;59.264;18.116;2022-10-31T14:16:20;13.25;;;5.82;;
75059;SDS011;63640;59.264;18.116;2022-10-31T14:18:50;17.83;;;6.60;;
75059;SDS011;63640;59.264;18.116;2022-10-31T14:23:50;15.10;;;6.57;;
75059;SDS011;63640;59.264;18.116;2022-10-31T14:28:50;18.70;;;7.97;;
75059;SDS011;63640;59.264;18.116;2022-10-31T14:34:00;15.82;;;6.95;;
75059;SDS011;63640;59.264;18.116;2022-10-31T14:36:34;15.70;;;7.20;;
75059;SDS011;63640;59.264;18.116;2022-10-31T14:39:18;15.20;;;6.05;;
75059;SDS011;63640;59.264;18.116;2022-10-31T14:42:13;14.48;;;6.97;;
75059;SDS011;63640;59.264;18.116;2022-10-31T14:50:52;19.27;;;7.65;;
75059;SDS011;63640;59.264;18.116;2022-10-31T14:53:27;15.65;;;5.68;;
75059;SDS011;63640;59.264;18.116;2022-10-31T14:55:57;21.40;;;6.93;;
75059;SDS011;63640;59.264;18.116;2022-10-31T14:58:24;13.88;;;6.35;;
75059;SDS011;63640;59.264;18.116;2022-10-31T15:00:53;15.77;;;6.50;;
75059;SDS011;63640;59.264;18.116;2022-10-31T15:03:23;19.42;;;7.60;;
75059;SDS011;63640;59.264;18.116;2022-10-31T15:05:56;13.52;;;7.03;;
75059;SDS011;63640;59.264;18.116;2022-10-31T15:08:35;18.17;;;8.00;;
75059;SDS011;63640;59.264;18.116;2022-10-31T15:11:11;19.17;;;7.60;;
75059;SDS011;63640;59.264;18.116;2022-10-31T15:13:50;18.75;;;8.15;;
75059;SDS011;63640;59.264;18.116;2022-10-31T15:16:24;15.75;;;6.95;;
75059;SDS011;63640;59.264;18.116;2022-10-31T15:19:03;17.45;;;7.95;;
75059;SDS011;63640;59.264;18.116;2022-10-31T15:21:30;12.20;;;6.65;;
75059;SDS011;63640;59.264;18.116;2022-10-31T15:23:58;19.52;;;8.27;;
75059;SDS011;63640;59.264;18.116;2022-10-31T15:26:40;18.75;;;8.57;;
75059;SDS011;63640;59.264;18.116;2022-10-31T15:29:11;21.23;;;9.15;;
75059;SDS011;63640;59.264;18.116;2022-10-31T15:31:38;18.42;;;7.13;;
75059;SDS011;63640;59.264;18.116;2022-10-31T15:34:11;15.23;;;7.38;;
75059;SDS011;63640;59.264;18.116;2022-10-31T15:36:41;23.13;;;9.40;;
75059;SDS011;63640;59.264;18.116;2022-10-31T15:39:10;24.45;;;9.68;;
75059;SDS011;63640;59.264;18.116;2022-10-31T15:42:19;24.30;;;10.07;;
75059;SDS011;63640;59.264;18.116;2022-10-31T15:44:28;19.80;;;8.07;;
75059;SDS011;63640;59.264;18.116;2022-10-31T15:46:56;24.00;;;9.57;;
75059;SDS011;63640;59.264;18.116;2022-10-31T15:49:36;24.33;;;10.05;;
75059;SDS011;63640;59.264;18.116;2022-10-31T15:52:45;16.77;;;7.90;;
75059;SDS011;63640;59.264;18.116;2022-10-31T15:55:15;21.40;;;8.50;;
75059;SDS011;63640;59.264;18.116;2022-10-31T15:57:42;28.50;;;10.88;;
75059;SDS011;63640;59.264;18.116;2022-10-31T16:03:08;21.17;;;10.02;;
75059;SDS011;63640;59.264;18.116;2022-10-31T16:05:36;17.58;;;8.43;;
75059;SDS011;63640;59.264;18.116;2022-10-31T16:10:52;16.83;;;7.80;;
75059;SDS011;63640;59.264;18.116;2022-10-31T16:13:19;19.85;;;8.15;;
75059;SDS011;63640;59.264;18.116;2022-10-31T16:15:51;20.55;;;7.97;;
75059;SDS011;63640;59.264;18.116;2022-10-31T16:18:21;19.60;;;9.50;;
75059;SDS011;63640;59.264;18.116;2022-10-31T16:20:51;19.75;;;9.20;;
75059;SDS011;63640;59.264;18.116;2022-10-31T16:23:19;20.20;;;8.68;;
75059;SDS011;63640;59.264;18.116;2022-10-31T16:25:45;13.15;;;7.03;;
75059;SDS011;63640;59.264;18.116;2022-10-31T16:28:16;20.55;;;8.55;;
75059;SDS011;63640;59.264;18.116;2022-10-31T16:30:47;21.27;;;8.82;;
75059;SDS011;63640;59.264;18.116;2022-10-31T16:33:30;20.88;;;8.65;;
75059;SDS011;63640;59.264;18.116;2022-10-31T16:36:13;20.95;;;7.95;;
75059;SDS011;63640;59.264;18.116;2022-10-31T16:38:55;27.30;;;8.93;;
75059;SDS011;63640;59.264;18.116;2022-10-31T16:41:21;26.92;;;10.02;;
75059;SDS011;63640;59.264;18.116;2022-10-31T16:43:46;21.73;;;10.23;;
75059;SDS011;63640;59.264;18.116;2022-10-31T16:46:12;23.80;;;9.43;;
75059;SDS011;63640;59.264;18.116;2022-10-31T16:48:40;25.50;;;9.85;;
75059;SDS011;63640;59.264;18.116;2022-10-31T16:51:07;25.38;;;9.68;;
75059;SDS011;63640;59.264;18.116;2022-10-31T16:53:32;23.17;;;9.98;;
75059;SDS011;63640;59.264;18.116;2022-10-31T16:55:58;28.05;;;9.18;;
75059;SDS011;63640;59.264;18.116;2022-10-31T16:58:25;24.95;;;9.80;;